createdAt,value
2023-04-04T00:00:57.323Z,9.68
2023-04-04T00:03:24.832Z,9.71
2023-04-04T00:05:52.780Z,9.57
2023-04-04T00:08:21.880Z,9.51
2023-04-04T00:10:49.279Z,9.56
2023-04-04T00:13:16.723Z,9.46
2023-04-04T00:15:44.251Z,9.37
2023-04-04T00:18:11.806Z,9.30
2023-04-04T00:20:39.991Z,9.32
2023-04-04T00:23:11.149Z,9.34
2023-04-04T00:25:39.160Z,9.21
2023-04-04T00:28:06.553Z,9.15
2023-04-04T00:30:34.644Z,9.07
2023-04-04T00:33:03.441Z,9.20
2023-04-04T00:35:31.326Z,9.15
2023-04-04T00:37:58.606Z,9.01
2023-04-04T00:40:26.685Z,9.01
2023-04-04T00:42:54.208Z,9.02
2023-04-04T00:45:22.114Z,8.92
2023-04-04T00:47:50.851Z,8.91
2023-04-04T00:50:18.337Z,8.89
2023-04-04T00:52:46.166Z,8.91
2023-04-04T00:55:13.991Z,8.90
2023-04-04T00:57:41.800Z,8.80
2023-04-04T01:00:10.436Z,8.82
2023-04-04T01:02:37.778Z,8.85
2023-04-04T01:05:06.491Z,8.74
2023-04-04T01:07:36.707Z,8.51
2023-04-04T01:10:05.590Z,8.45
2023-04-04T01:12:34.724Z,8.43
2023-04-04T01:15:02.218Z,8.37
2023-04-04T01:17:30.026Z,8.33
2023-04-04T01:20:08.441Z,8.39
2023-04-04T01:22:46.374Z,8.36
2023-04-04T01:25:15.008Z,8.40
2023-04-04T01:27:46.682Z,8.29
2023-04-04T01:30:17.848Z,8.32
2023-04-04T01:32:51.518Z,8.44
2023-04-04T01:35:25.776Z,8.51
2023-04-04T01:38:04.129Z,8.47
2023-04-04T01:40:39.773Z,8.40
2023-04-04T01:43:08.885Z,8.56
2023-04-04T01:45:38.376Z,8.50
2023-04-04T01:48:11.185Z,8.37
2023-04-04T01:50:40.003Z,8.37
2023-04-04T01:53:08.479Z,8.23
2023-04-04T01:55:35.767Z,8.13
2023-04-04T01:58:04.226Z,8.16
2023-04-04T02:00:32.838Z,8.18
2023-04-04T02:03:00.480Z,8.11
2023-04-04T02:05:28.346Z,8.10
2023-04-04T02:07:56.021Z,8.16
2023-04-04T02:10:34.135Z,8.17
2023-04-04T02:13:01.863Z,8.08
2023-04-04T02:15:29.170Z,8.11
2023-04-04T02:17:58.400Z,8.10
2023-04-04T02:20:30.521Z,7.99
2023-04-04T02:22:57.944Z,7.88
2023-04-04T02:25:26.026Z,7.93
2023-04-04T02:27:53.498Z,8.02
2023-04-04T02:30:21.776Z,8.06
2023-04-04T02:32:51.622Z,7.94
2023-04-04T02:35:21.422Z,7.88
2023-04-04T02:37:49.240Z,7.88
2023-04-04T02:40:41.577Z,7.84
2023-04-04T02:43:09.485Z,7.88
2023-04-04T02:45:37.784Z,7.86
2023-04-04T02:48:12.746Z,7.82
2023-04-04T02:50:47.450Z,7.75
2023-04-04T02:55:45.023Z,7.74
2023-04-04T02:58:12.440Z,7.72
2023-04-04T03:00:40.912Z,7.59
2023-04-04T03:03:09.173Z,7.74
2023-04-04T03:05:41.904Z,7.70
2023-04-04T03:08:09.690Z,7.70
2023-04-04T03:10:38.315Z,7.72
2023-04-04T03:13:07.499Z,7.74
2023-04-04T03:15:36.700Z,7.64
2023-04-04T03:18:05.100Z,7.67
2023-04-04T03:20:34.141Z,7.66
2023-04-04T03:23:01.656Z,7.47
2023-04-04T03:25:29.093Z,7.56
2023-04-04T03:27:57.390Z,7.38
2023-04-04T03:30:27.298Z,7.31
2023-04-04T03:32:55.816Z,7.39
2023-04-04T03:35:23.826Z,7.38
2023-04-04T03:37:51.184Z,7.37
2023-04-04T03:40:18.937Z,7.43
2023-04-04T03:42:46.368Z,7.42
2023-04-04T03:45:19.008Z,7.21
2023-04-04T03:47:47.388Z,7.18
2023-04-04T03:50:15.698Z,7.08
2023-04-04T03:52:49.214Z,7.26
2023-04-04T03:55:17.198Z,7.23
2023-04-04T03:57:45.012Z,7.07
2023-04-04T04:00:16.198Z,7.01
2023-04-04T04:02:45.898Z,7.05
2023-04-04T04:05:13.485Z,7.09
2023-04-04T04:07:42.930Z,6.96
2023-04-04T04:10:10.719Z,7.01
2023-04-04T04:12:42.254Z,7.03
2023-04-04T04:15:11.471Z,6.89
2023-04-04T04:17:42.225Z,7.00
2023-04-04T04:20:12.424Z,6.90
2023-04-04T04:22:48.079Z,7.01
2023-04-04T04:25:16.404Z,7.01
2023-04-04T04:27:49.400Z,6.99
2023-04-04T04:30:18.708Z,6.99
2023-04-04T04:32:46.665Z,6.84
2023-04-04T04:35:15.252Z,6.83
2023-04-04T04:37:43.404Z,6.86
2023-04-04T04:40:11.696Z,6.84
2023-04-04T04:42:46.102Z,6.69
2023-04-04T04:45:16.687Z,6.65
2023-04-04T04:47:48.955Z,6.57
2023-04-04T04:50:19.039Z,6.56
2023-04-04T04:52:53.122Z,6.49
2023-04-04T04:55:21.106Z,6.48
2023-04-04T04:58:00.195Z,6.69
2023-04-04T05:00:28.936Z,6.76
2023-04-04T05:02:56.903Z,6.66
2023-04-04T05:05:36.318Z,6.46
2023-04-04T05:08:08.137Z,6.57
2023-04-04T05:10:39.910Z,6.50
2023-04-04T05:13:10.117Z,6.97
2023-04-04T05:15:43.611Z,6.86
2023-04-04T05:18:11.710Z,7.19
2023-04-04T05:20:39.241Z,6.84
2023-04-04T05:23:09.260Z,6.93
2023-04-04T05:25:40.521Z,6.92
2023-04-04T05:28:09.148Z,6.79
2023-04-04T05:30:40.239Z,6.86
2023-04-04T05:33:15.360Z,7.07
2023-04-04T05:35:49.443Z,6.89
2023-04-04T05:38:19.000Z,6.89
2023-04-04T05:40:48.921Z,6.94
2023-04-04T05:43:17.898Z,7.25
2023-04-04T05:45:57.690Z,7.63
2023-04-04T05:48:26.704Z,7.86
2023-04-04T05:50:55.054Z,7.79
2023-04-04T05:53:34.991Z,7.70
2023-04-04T05:56:04.593Z,7.96
2023-04-04T05:58:34.490Z,8.08
2023-04-04T06:01:09.015Z,7.91
2023-04-04T06:03:37.531Z,7.96
2023-04-04T06:06:10.358Z,7.97
2023-04-04T06:08:50.598Z,8.35
2023-04-04T06:11:22.657Z,8.40
2023-04-04T06:13:51.548Z,8.26
2023-04-04T06:16:21.653Z,8.32
2023-04-04T06:18:49.571Z,8.41
2023-04-04T06:21:17.449Z,8.29
2023-04-04T06:23:45.681Z,8.40
2023-04-04T06:26:13.617Z,8.70
2023-04-04T06:28:49.812Z,8.49
2023-04-04T06:31:22.081Z,8.90
2023-04-04T06:33:50.192Z,8.75
2023-04-04T06:36:20.646Z,8.99
2023-04-04T06:38:48.301Z,8.97
2023-04-04T06:41:19.470Z,9.14
2023-04-04T06:43:49.264Z,9.31
2023-04-04T06:46:17.208Z,9.38
2023-04-04T06:48:45.147Z,9.37
2023-04-04T06:51:13.125Z,9.09
2023-04-04T06:53:45.149Z,9.31
2023-04-04T06:56:12.923Z,9.33
2023-04-04T06:58:40.750Z,9.31
2023-04-04T07:01:08.110Z,9.35
2023-04-04T07:03:36.495Z,9.62
2023-04-04T07:06:04.765Z,9.48
2023-04-04T07:08:36.886Z,9.61
2023-04-04T07:11:08.000Z,9.66
2023-04-04T07:13:35.714Z,9.62
2023-04-04T07:16:03.457Z,9.65
2023-04-04T07:18:31.085Z,9.49
2023-04-04T07:20:59.635Z,9.53
2023-04-04T07:23:27.940Z,9.67
2023-04-04T07:25:56.056Z,9.92
2023-04-04T07:28:23.458Z,9.83
2023-04-04T07:30:51.361Z,9.78
2023-04-04T07:33:19.099Z,9.99
2023-04-04T07:35:46.938Z,9.89
2023-04-04T07:38:14.432Z,9.81
2023-04-04T07:41:07.577Z,10.10
2023-04-04T07:43:34.979Z,10.21
2023-04-04T07:46:02.809Z,10.55
2023-04-04T07:48:30.595Z,10.24
2023-04-04T07:51:00.261Z,10.13
2023-04-04T07:53:27.559Z,10.48
2023-04-04T07:55:55.332Z,10.63
2023-04-04T07:58:22.738Z,10.71
2023-04-04T08:00:50.084Z,10.81
2023-04-04T08:03:20.009Z,10.88
2023-04-04T08:05:47.548Z,10.94
2023-04-04T08:08:16.549Z,10.89
2023-04-04T08:10:45.936Z,10.85
2023-04-04T08:13:13.974Z,11.04
2023-04-04T08:15:42.141Z,11.14
2023-04-04T08:18:09.970Z,10.83
2023-04-04T08:20:38.064Z,11.00
2023-04-04T08:23:05.940Z,11.13
2023-04-04T08:25:34.943Z,11.13
2023-04-04T08:28:05.975Z,11.30
2023-04-04T08:30:33.395Z,11.64
2023-04-04T08:33:02.316Z,11.73
2023-04-04T08:35:31.287Z,11.76
2023-04-04T08:37:59.183Z,11.89
2023-04-04T08:40:30.265Z,11.99
2023-04-04T08:43:00.010Z,11.48
2023-04-04T08:45:28.653Z,11.49
2023-04-04T08:47:59.099Z,11.63
2023-04-04T08:50:28.007Z,11.91
2023-04-04T08:52:56.739Z,12.46
2023-04-04T08:55:24.687Z,12.23
2023-04-04T08:57:52.091Z,12.26
2023-04-04T09:00:21.563Z,12.11
2023-04-04T09:02:58.120Z,12.61
2023-04-04T09:05:27.333Z,12.66
2023-04-04T09:07:55.967Z,12.66
2023-04-04T09:10:23.765Z,12.78
2023-04-04T09:12:53.744Z,12.85
2023-04-04T09:15:23.745Z,13.22
2023-04-04T09:17:51.401Z,13.07
2023-04-04T09:20:38.541Z,12.64
2023-04-04T09:23:08.140Z,12.84
2023-04-04T09:25:37.752Z,13.65
2023-04-04T09:28:06.175Z,14.25
2023-04-04T09:30:35.788Z,14.71
2023-04-04T09:33:08.995Z,15.72
2023-04-04T09:35:41.526Z,16.14
2023-04-04T09:38:09.008Z,16.15
2023-04-04T09:40:38.249Z,17.38
2023-04-04T09:43:08.174Z,18.18
2023-04-04T09:45:40.765Z,17.88
2023-04-04T09:48:11.298Z,17.80
2023-04-04T09:50:46.703Z,17.53
2023-04-04T09:53:18.457Z,17.89
2023-04-04T09:55:52.748Z,18.53
2023-04-04T09:58:27.964Z,16.41
2023-04-04T10:00:57.550Z,15.15
2023-04-04T10:03:25.293Z,17.23
2023-04-04T10:06:06.740Z,18.46
2023-04-04T10:08:37.634Z,19.41
2023-04-04T10:11:12.035Z,19.90
2023-04-04T10:13:44.793Z,20.69
2023-04-04T10:16:13.264Z,21.31
2023-04-04T10:18:41.095Z,20.35
2023-04-04T10:23:41.523Z,19.14
2023-04-04T10:26:08.950Z,20.70
2023-04-04T10:28:37.003Z,20.29
2023-04-04T10:31:23.707Z,21.32
2023-04-04T10:34:00.514Z,20.79
2023-04-04T10:36:36.012Z,20.71
2023-04-04T10:39:22.721Z,20.63
2023-04-04T10:41:51.606Z,17.95
2023-04-04T10:44:23.761Z,19.29
2023-04-04T10:46:53.706Z,19.67
2023-04-04T10:49:22.157Z,20.75
2023-04-04T10:51:56.191Z,20.21
2023-04-04T10:54:25.991Z,20.24
2023-04-04T10:56:55.231Z,20.98
2023-04-04T10:59:25.063Z,21.58
2023-04-04T11:02:00.545Z,21.07
2023-04-04T11:04:32.404Z,20.72
2023-04-04T11:07:17.370Z,20.86
2023-04-04T11:09:49.777Z,20.79
2023-04-04T11:12:23.358Z,21.63
2023-04-04T11:15:04.106Z,20.48
2023-04-04T11:17:41.003Z,20.91
2023-04-04T11:20:09.005Z,20.70
2023-04-04T11:22:36.925Z,19.38
2023-04-04T11:25:25.678Z,20.69
2023-04-04T11:27:56.846Z,19.22
2023-04-04T11:30:25.572Z,20.03
2023-04-04T11:33:04.020Z,19.22
2023-04-04T11:35:34.755Z,19.13
2023-04-04T11:38:02.641Z,20.63
2023-04-04T11:40:39.661Z,21.63
2023-04-04T11:43:12.075Z,22.21
2023-04-04T11:45:45.960Z,23.05
2023-04-04T11:48:15.478Z,22.76
2023-04-04T11:50:45.830Z,22.17
2023-04-04T11:53:13.552Z,21.76
2023-04-04T11:55:47.592Z,22.58
2023-04-04T11:58:17.401Z,22.34
2023-04-04T12:00:46.557Z,23.12
2023-04-04T12:03:16.358Z,22.24
2023-04-04T12:05:44.537Z,22.75
2023-04-04T12:08:12.602Z,23.64
2023-04-04T12:10:40.949Z,22.92
2023-04-04T12:13:08.906Z,20.13
2023-04-04T12:15:37.680Z,21.64
2023-04-04T12:18:09.224Z,22.69
2023-04-04T12:20:41.588Z,23.08
2023-04-04T12:23:10.538Z,20.70
2023-04-04T12:25:40.350Z,21.54
2023-04-04T12:28:08.720Z,22.21
2023-04-04T12:30:36.920Z,22.99
2023-04-04T12:33:05.492Z,23.27
2023-04-04T12:35:34.516Z,24.03
2023-04-04T12:38:10.653Z,22.34
2023-04-04T12:40:39.431Z,21.20
2023-04-04T12:43:08.054Z,23.11
2023-04-04T12:45:39.372Z,24.05
2023-04-04T12:48:14.650Z,24.99
2023-04-04T12:50:51.998Z,24.95
2023-04-04T12:53:29.022Z,24.74
2023-04-04T12:56:01.278Z,21.42
2023-04-04T12:58:29.731Z,20.62
2023-04-04T13:00:59.965Z,19.96
2023-04-04T13:03:28.736Z,21.41
2023-04-04T13:05:56.579Z,20.40
2023-04-04T13:08:23.950Z,22.02
2023-04-04T13:11:02.560Z,22.04
2023-04-04T13:13:34.453Z,22.95
2023-04-04T13:16:02.871Z,22.27
2023-04-04T13:18:38.300Z,23.56
2023-04-04T13:21:07.705Z,25.52
2023-04-04T13:23:37.560Z,24.00
2023-04-04T13:26:06.979Z,25.00
2023-04-04T13:28:36.594Z,24.47
2023-04-04T13:31:06.225Z,23.25
2023-04-04T13:33:34.938Z,25.27
2023-04-04T13:36:02.826Z,27.35
2023-04-04T13:38:30.692Z,28.64
2023-04-04T13:40:59.050Z,26.25
2023-04-04T13:43:27.130Z,24.33
2023-04-04T13:45:55.877Z,25.25
2023-04-04T13:48:24.120Z,27.58
2023-04-04T13:50:53.258Z,27.89
2023-04-04T13:53:21.400Z,29.46
2023-04-04T13:58:20.617Z,26.89
2023-04-04T14:00:48.725Z,24.29
2023-04-04T14:03:16.879Z,25.85
2023-04-04T14:05:45.832Z,27.17
2023-04-04T14:08:14.607Z,26.02
2023-04-04T14:10:42.085Z,26.42
2023-04-04T14:13:09.493Z,26.97
2023-04-04T14:15:36.828Z,27.73
2023-04-04T14:18:04.707Z,31.28
2023-04-04T14:20:33.371Z,31.75
2023-04-04T14:23:01.270Z,32.26
2023-04-04T14:25:29.100Z,32.76
2023-04-04T14:27:57.007Z,28.68
2023-04-04T14:30:24.855Z,27.35
2023-04-04T14:32:52.718Z,26.79
2023-04-04T14:35:21.241Z,28.74
2023-04-04T14:37:49.975Z,27.90
2023-04-04T14:40:17.472Z,23.24
2023-04-04T14:42:44.960Z,25.66
2023-04-04T14:45:12.902Z,28.36
2023-04-04T14:47:41.387Z,27.37
2023-04-04T14:50:09.293Z,27.17
2023-04-04T14:52:37.134Z,25.91
2023-04-04T14:55:05.247Z,25.78
2023-04-04T14:57:39.254Z,26.63
2023-04-04T15:00:16.116Z,27.61
2023-04-04T15:02:43.474Z,25.95
2023-04-04T15:05:11.684Z,27.19
2023-04-04T15:07:39.165Z,27.34
2023-04-04T15:10:07.412Z,26.90
2023-04-04T15:12:35.888Z,23.16
2023-04-04T15:15:03.303Z,23.11
2023-04-04T15:17:31.899Z,25.48
2023-04-04T15:19:59.947Z,25.76
2023-04-04T15:22:27.406Z,23.22
2023-04-04T15:24:56.488Z,24.17
2023-04-04T15:27:24.309Z,24.69
2023-04-04T15:29:52.819Z,27.16
2023-04-04T15:32:21.077Z,22.21
2023-04-04T15:34:48.476Z,20.99
2023-04-04T15:37:16.980Z,20.33
2023-04-04T15:39:52.306Z,21.46
2023-04-04T15:42:21.347Z,21.70
2023-04-04T15:44:49.100Z,21.16
2023-04-04T15:47:17.151Z,21.13
2023-04-04T15:49:44.918Z,22.21
2023-04-04T15:52:12.744Z,19.97
2023-04-04T15:54:40.564Z,20.04
2023-04-04T15:57:08.370Z,20.92
2023-04-04T15:59:36.304Z,21.03
2023-04-04T16:02:07.116Z,20.41
2023-04-04T16:04:36.024Z,22.27
2023-04-04T16:07:03.860Z,20.97
2023-04-04T16:09:31.687Z,21.30
2023-04-04T16:11:59.401Z,19.94
2023-04-04T16:14:26.751Z,18.96
2023-04-04T16:16:54.086Z,19.04
2023-04-04T16:19:21.422Z,16.93
2023-04-04T16:21:49.556Z,16.47
2023-04-04T16:24:17.179Z,16.34
2023-04-04T16:26:47.512Z,15.51
2023-04-04T16:29:17.149Z,15.41
2023-04-04T16:31:45.222Z,15.35
2023-04-04T16:34:13.005Z,14.59
2023-04-04T16:36:40.469Z,14.89
2023-04-04T16:39:07.937Z,14.27
2023-04-04T16:41:35.436Z,14.11
2023-04-04T16:44:03.798Z,14.20
2023-04-04T16:46:32.152Z,14.07
2023-04-04T16:48:59.631Z,14.38
2023-04-04T16:51:27.909Z,14.22
2023-04-04T16:53:55.187Z,14.07
2023-04-04T16:56:23.954Z,14.04
2023-04-04T16:58:52.174Z,13.79
2023-04-04T17:01:22.853Z,13.75
2023-04-04T17:03:51.015Z,13.70
2023-04-04T17:06:19.137Z,13.65
2023-04-04T17:08:49.078Z,13.52
2023-04-04T17:11:17.143Z,13.39
2023-04-04T17:13:44.571Z,13.31
2023-04-04T17:16:12.261Z,13.08
2023-04-04T17:18:41.155Z,13.14
2023-04-04T17:21:08.975Z,12.98
2023-04-04T17:23:36.801Z,13.06
2023-04-04T17:26:04.623Z,13.04
2023-04-04T17:28:32.162Z,12.97
2023-04-04T17:30:59.974Z,12.92
2023-04-04T17:33:27.948Z,12.76
2023-04-04T17:35:55.536Z,12.67
2023-04-04T17:38:23.780Z,12.82
2023-04-04T17:40:52.817Z,12.68
2023-04-04T17:43:20.257Z,12.34
2023-04-04T17:45:48.120Z,12.22
2023-04-04T17:48:16.770Z,12.13
2023-04-04T17:50:44.184Z,12.24
2023-04-04T17:53:11.530Z,12.15
2023-04-04T17:55:40.541Z,12.14
2023-04-04T17:58:08.450Z,12.03
2023-04-04T18:00:36.304Z,11.98
2023-04-04T18:03:04.294Z,11.90
2023-04-04T18:05:33.221Z,11.71
2023-04-04T18:08:04.845Z,11.79
2023-04-04T18:10:32.839Z,11.76
2023-04-04T18:13:01.374Z,11.57
2023-04-04T18:15:29.780Z,11.55
2023-04-04T18:17:57.865Z,11.47
2023-04-04T18:20:34.570Z,11.44
2023-04-04T18:23:06.770Z,11.52
2023-04-04T18:25:34.645Z,11.30
2023-04-04T18:28:02.301Z,11.14
2023-04-04T18:30:29.875Z,11.27
2023-04-04T18:32:57.681Z,11.17
2023-04-04T18:35:25.139Z,11.24
2023-04-04T18:37:53.713Z,11.02
2023-04-04T18:40:21.810Z,10.89
2023-04-04T18:42:49.330Z,11.10
2023-04-04T18:45:18.313Z,11.15
2023-04-04T18:47:46.979Z,10.91
2023-04-04T18:50:14.750Z,10.89
2023-04-04T18:52:43.199Z,10.88
2023-04-04T18:55:11.259Z,10.83
2023-04-04T18:57:38.646Z,10.85
2023-04-04T19:00:06.877Z,10.84
2023-04-04T19:02:37.448Z,10.91
2023-04-04T19:05:05.168Z,10.90
2023-04-04T19:07:34.673Z,10.93
2023-04-04T19:10:06.159Z,10.99
2023-04-04T19:12:35.030Z,10.75
2023-04-04T19:15:03.852Z,10.76
2023-04-04T19:17:31.472Z,10.83
2023-04-04T19:19:59.020Z,10.72
2023-04-04T19:22:26.953Z,10.59
2023-04-04T19:24:55.462Z,10.57
2023-04-04T19:27:23.171Z,10.65
2023-04-04T19:29:53.756Z,10.31
2023-04-04T19:32:22.812Z,10.27
2023-04-04T19:34:50.208Z,10.41
2023-04-04T19:37:19.295Z,10.46
2023-04-04T19:39:47.999Z,10.36
2023-04-04T19:42:19.707Z,10.17
2023-04-04T19:44:47.136Z,9.96
2023-04-04T19:47:17.408Z,9.98
2023-04-04T19:49:45.351Z,10.04
2023-04-04T19:52:13.899Z,9.79
2023-04-04T19:54:43.048Z,9.96
2023-04-04T19:57:20.585Z,9.82
2023-04-04T20:00:05.192Z,9.88
2023-04-04T20:02:33.580Z,9.96
2023-04-04T20:05:01.693Z,10.15
2023-04-04T20:07:29.117Z,9.74
2023-04-04T20:09:57.019Z,9.69
2023-04-04T20:12:25.713Z,9.86
2023-04-04T20:14:55.917Z,9.89
2023-04-04T20:17:23.878Z,9.80
2023-04-04T20:19:52.192Z,9.87
2023-04-04T20:22:19.509Z,10.00
2023-04-04T20:24:48.316Z,10.07
2023-04-04T20:27:23.893Z,10.10
2023-04-04T20:29:53.410Z,10.04
2023-04-04T20:32:21.218Z,9.78
2023-04-04T20:34:50.616Z,9.49
2023-04-04T20:37:21.863Z,9.61
2023-04-04T20:39:53.100Z,9.58
2023-04-04T20:42:20.551Z,9.53
2023-04-04T20:44:48.628Z,9.61
2023-04-04T20:47:28.208Z,9.76
2023-04-04T20:49:56.545Z,9.57
2023-04-04T20:52:23.933Z,9.50
2023-04-04T20:54:51.845Z,9.38
2023-04-04T20:57:23.923Z,9.39
2023-04-04T20:59:51.756Z,9.35
2023-04-04T21:02:20.735Z,9.54
2023-04-04T21:04:49.752Z,9.43
2023-04-04T21:07:36.181Z,9.43
2023-04-04T21:10:19.816Z,9.43
2023-04-04T21:12:47.638Z,9.25
2023-04-04T21:15:20.916Z,9.29
2023-04-04T21:17:48.663Z,9.26
2023-04-04T21:20:36.521Z,9.28
2023-04-04T21:23:06.633Z,9.28
2023-04-04T21:25:43.708Z,9.36
2023-04-04T21:28:11.695Z,9.50
2023-04-04T21:30:44.272Z,9.56
2023-04-04T21:33:18.695Z,9.61
2023-04-04T21:35:49.449Z,9.33
2023-04-04T21:38:26.538Z,9.10
2023-04-04T21:40:53.897Z,8.86
2023-04-04T21:43:21.333Z,8.80
2023-04-04T21:45:48.632Z,9.06
2023-04-04T21:48:16.549Z,9.24
2023-04-04T21:50:44.695Z,9.05
2023-04-04T21:53:12.089Z,9.17
2023-04-04T21:55:40.321Z,9.25
2023-04-04T21:58:07.681Z,9.18
2023-04-04T22:00:36.326Z,9.17
2023-04-04T22:03:03.727Z,9.18
2023-04-04T22:05:38.606Z,9.27
2023-04-04T22:08:07.131Z,9.38
2023-04-04T22:10:34.654Z,9.48
2023-04-04T22:13:02.621Z,9.32
2023-04-04T22:15:29.992Z,9.19
2023-04-04T22:18:03.913Z,9.26
2023-04-04T22:20:32.533Z,9.39
2023-04-04T22:23:00.019Z,9.25
2023-04-04T22:25:27.499Z,9.29
2023-04-04T22:27:55.300Z,9.31
2023-04-04T22:30:23.287Z,9.30
2023-04-04T22:32:51.188Z,9.14
2023-04-04T22:35:18.995Z,9.14
2023-04-04T22:37:47.227Z,9.07
2023-04-04T22:40:14.621Z,8.88
2023-04-04T22:42:41.986Z,8.92
2023-04-04T22:45:10.081Z,8.74
2023-04-04T22:47:38.569Z,8.70
2023-04-04T22:50:07.317Z,8.72
2023-04-04T22:52:42.358Z,8.62
2023-04-04T22:55:11.583Z,8.51
2023-04-04T22:57:39.191Z,8.41
2023-04-04T23:00:11.310Z,8.49
2023-04-04T23:02:40.122Z,8.51
2023-04-04T23:05:10.962Z,8.53
2023-04-04T23:07:39.041Z,8.63
2023-04-04T23:10:07.759Z,8.46
2023-04-04T23:12:36.009Z,8.28
2023-04-04T23:15:04.353Z,8.26
2023-04-04T23:17:33.099Z,8.12
2023-04-04T23:20:01.718Z,8.08
2023-04-04T23:22:29.535Z,7.95
2023-04-04T23:24:57.313Z,7.69
2023-04-04T23:27:24.656Z,7.81
2023-04-04T23:29:57.034Z,7.83
2023-04-04T23:32:24.793Z,7.52
2023-04-04T23:34:52.057Z,7.48
2023-04-04T23:37:19.450Z,7.27
2023-04-04T23:39:47.537Z,7.58
2023-04-04T23:42:15.497Z,7.40
2023-04-04T23:44:43.874Z,7.51
2023-04-04T23:47:11.373Z,7.35
2023-04-04T23:49:39.129Z,7.44
2023-04-04T23:52:06.956Z,7.44
2023-04-04T23:54:34.707Z,7.20
2023-04-04T23:57:02.720Z,7.05
2023-04-04T23:59:30.622Z,7.13
